createdAt,value
2019-04-30T00:00:11.842Z,8.90
2019-04-30T00:02:46.648Z,9.80
2019-04-30T00:05:17.380Z,9.90
2019-04-30T00:07:40.508Z,10.00
2019-04-30T00:10:07.451Z,9.90
2019-04-30T00:12:38.019Z,9.90
2019-04-30T00:15:01.372Z,9.90
2019-04-30T00:17:28.288Z,9.80
2019-04-30T00:19:59.829Z,9.70
2019-04-30T00:22:33.181Z,9.80
2019-04-30T00:24:50.047Z,9.60
2019-04-30T00:27:16.009Z,9.60
2019-04-30T00:29:42.997Z,9.60
2019-04-30T00:32:09.930Z,8.40
2019-04-30T00:34:39.329Z,9.60
2019-04-30T00:37:07.412Z,9.70
2019-04-30T00:39:30.726Z,9.60
2019-04-30T00:41:57.876Z,9.70
2019-04-30T00:44:28.205Z,9.50
2019-04-30T00:46:51.735Z,9.50
2019-04-30T00:49:23.114Z,9.50
2019-04-30T00:51:45.607Z,9.60
2019-04-30T00:54:12.540Z,9.70
2019-04-30T00:56:39.514Z,9.50
2019-04-30T00:59:10.327Z,9.60
2019-04-30T01:01:43.596Z,9.50
2019-04-30T01:04:09.976Z,9.60
2019-04-30T01:06:36.892Z,9.60
2019-04-30T01:09:05.523Z,8.90
2019-04-30T01:11:30.964Z,8.70
2019-04-30T01:13:59.030Z,9.50
2019-04-30T01:16:30.114Z,9.50
2019-04-30T01:18:51.756Z,9.60
2019-04-30T01:21:18.713Z,9.50
2019-04-30T01:23:51.932Z,9.60
2019-04-30T01:26:12.555Z,9.10
2019-04-30T01:28:39.500Z,9.50
2019-04-30T01:31:08.836Z,9.50
2019-04-30T01:33:34.701Z,9.50
2019-04-30T01:36:04.046Z,9.50
2019-04-30T01:38:28.673Z,9.60
2019-04-30T01:40:54.685Z,9.50
2019-04-30T01:43:30.495Z,9.40
2019-04-30T01:45:48.792Z,9.40
2019-04-30T01:48:15.744Z,9.50
2019-04-30T01:50:42.676Z,9.60
2019-04-30T01:53:13.089Z,9.60
2019-04-30T01:55:46.235Z,9.60
2019-04-30T01:58:19.293Z,9.60
2019-04-30T02:00:49.600Z,9.30
2019-04-30T02:03:16.507Z,9.60
2019-04-30T02:05:43.451Z,9.70
2019-04-30T02:08:10.412Z,9.60
2019-04-30T02:10:37.345Z,9.70
2019-04-30T02:13:04.286Z,11.90
2019-04-30T02:15:31.231Z,9.60
2019-04-30T02:17:58.698Z,9.70
2019-04-30T02:20:25.097Z,9.60
2019-04-30T02:22:52.041Z,9.60
2019-04-30T02:25:19.557Z,9.80
2019-04-30T02:27:45.920Z,9.70
2019-04-30T02:30:12.860Z,9.80
2019-04-30T02:32:39.899Z,7.60
2019-04-30T02:35:14.982Z,9.70
2019-04-30T02:38:01.551Z,9.60
2019-04-30T02:40:30.164Z,9.20
2019-04-30T02:42:58.046Z,9.70
2019-04-30T02:45:23.293Z,8.80
2019-04-30T02:47:50.273Z,9.50
2019-04-30T02:50:21.630Z,9.20
2019-04-30T02:52:44.132Z,9.50
2019-04-30T02:55:11.115Z,9.50
2019-04-30T02:57:40.146Z,9.40
2019-04-30T03:00:10.008Z,9.40
2019-04-30T03:02:34.743Z,9.40
2019-04-30T03:05:01.691Z,8.20
2019-04-30T03:07:29.527Z,8.60
2019-04-30T03:09:55.550Z,9.50
2019-04-30T03:12:22.484Z,9.50
2019-04-30T03:14:50.266Z,9.20
2019-04-30T03:17:36.139Z,9.60
2019-04-30T03:20:34.642Z,9.10
2019-04-30T03:22:52.121Z,9.50
2019-04-30T03:25:19.334Z,9.40
2019-04-30T03:27:45.958Z,9.40
2019-04-30T03:30:12.965Z,9.50
2019-04-30T03:32:43.000Z,9.50
2019-04-30T03:35:06.832Z,9.40
2019-04-30T03:37:33.768Z,9.40
2019-04-30T03:40:00.817Z,9.30
2019-04-30T03:42:29.568Z,9.30
2019-04-30T03:44:54.645Z,9.40
2019-04-30T03:47:22.144Z,9.40
2019-04-30T03:49:49.866Z,9.40
2019-04-30T03:52:16.011Z,9.40
2019-04-30T03:54:42.924Z,9.50
2019-04-30T03:57:10.669Z,9.70
2019-04-30T03:59:39.480Z,9.60
2019-04-30T04:02:09.426Z,9.70
2019-04-30T04:04:52.063Z,9.80
2019-04-30T04:07:22.745Z,9.10
2019-04-30T04:09:54.862Z,9.70
2019-04-30T04:12:22.081Z,9.60
2019-04-30T04:14:50.914Z,9.70
2019-04-30T04:17:16.012Z,9.70
2019-04-30T04:19:42.978Z,9.80
2019-04-30T04:22:12.230Z,9.80
2019-04-30T04:24:36.872Z,12.00
2019-04-30T04:27:03.817Z,9.80
2019-04-30T04:29:30.732Z,9.70
2019-04-30T04:32:00.724Z,9.60
2019-04-30T04:34:24.632Z,9.60
2019-04-30T04:36:51.557Z,9.60
2019-04-30T04:39:20.129Z,9.70
2019-04-30T04:41:45.707Z,8.70
2019-04-30T04:44:13.125Z,9.60
2019-04-30T04:46:40.180Z,9.70
2019-04-30T04:49:08.897Z,9.60
2019-04-30T04:51:38.522Z,9.70
2019-04-30T04:54:03.320Z,9.80
2019-04-30T04:56:30.234Z,9.80
2019-04-30T04:58:54.522Z,9.70
2019-04-30T05:01:21.449Z,9.80
2019-04-30T05:03:48.994Z,9.90
2019-04-30T05:06:15.284Z,9.80
2019-04-30T05:08:42.225Z,9.80
2019-04-30T05:11:09.566Z,9.90
2019-04-30T05:13:36.103Z,10.00
2019-04-30T05:16:03.041Z,10.10
2019-04-30T05:18:29.956Z,10.10
2019-04-30T05:20:58.656Z,10.10
2019-04-30T05:23:23.815Z,10.10
2019-04-30T05:25:50.728Z,9.80
2019-04-30T05:28:18.875Z,10.20
2019-04-30T05:30:44.596Z,10.20
2019-04-30T05:33:11.495Z,10.30
2019-04-30T05:35:38.859Z,10.40
2019-04-30T05:38:05.376Z,10.50
2019-04-30T05:40:32.324Z,10.50
2019-04-30T05:43:00.409Z,10.40
2019-04-30T05:45:26.163Z,10.50
2019-04-30T05:47:53.104Z,10.50
2019-04-30T05:50:21.432Z,10.40
2019-04-30T05:52:49.307Z,10.60
2019-04-30T05:55:15.344Z,10.50
2019-04-30T05:57:52.998Z,10.60
2019-04-30T06:00:09.925Z,10.60
2019-04-30T06:02:36.103Z,10.60
2019-04-30T06:05:03.589Z,10.60
2019-04-30T06:07:30.528Z,11.50
2019-04-30T06:10:01.699Z,10.50
2019-04-30T06:12:35.151Z,10.40
2019-04-30T06:15:11.733Z,10.40
2019-04-30T06:17:39.166Z,10.40
2019-04-30T06:20:16.125Z,9.30
2019-04-30T06:22:32.709Z,10.60
2019-04-30T06:24:59.644Z,10.60
2019-04-30T06:27:26.573Z,10.50
2019-04-30T06:29:53.510Z,10.50
2019-04-30T06:32:20.463Z,10.40
2019-04-30T06:34:49.592Z,10.60
2019-04-30T06:37:14.320Z,10.60
2019-04-30T06:39:41.263Z,10.60
2019-04-30T06:42:12.639Z,10.70
2019-04-30T06:44:39.372Z,10.70
2019-04-30T06:47:02.240Z,10.70
2019-04-30T06:49:29.336Z,10.80
2019-04-30T06:51:58.739Z,10.80
2019-04-30T06:54:23.940Z,10.90
2019-04-30T06:56:50.864Z,10.90
2019-04-30T06:59:17.788Z,10.90
2019-04-30T07:01:44.712Z,10.90
2019-04-30T07:04:11.635Z,11.00
2019-04-30T07:06:43.865Z,11.00
2019-04-30T07:09:15.685Z,11.00
2019-04-30T07:11:49.229Z,10.90
2019-04-30T07:14:14.377Z,11.00
2019-04-30T07:16:41.341Z,10.90
2019-04-30T07:19:09.344Z,10.90
2019-04-30T07:21:36.561Z,10.80
2019-04-30T07:24:02.162Z,10.80
2019-04-30T07:26:29.123Z,10.70
2019-04-30T07:28:56.012Z,10.80
2019-04-30T07:31:22.936Z,10.80
2019-04-30T07:33:53.109Z,10.80
2019-04-30T07:36:16.843Z,10.90
2019-04-30T07:38:51.726Z,10.20
2019-04-30T07:41:10.698Z,10.80
2019-04-30T07:43:39.343Z,9.60
2019-04-30T07:46:04.585Z,10.70
2019-04-30T07:48:31.500Z,8.70
2019-04-30T07:50:59.259Z,10.70
2019-04-30T07:53:26.661Z,10.70
2019-04-30T07:55:53.572Z,10.70
2019-04-30T07:58:20.673Z,10.70
2019-04-30T08:00:49.556Z,10.80
2019-04-30T08:03:24.985Z,10.80
2019-04-30T08:05:51.650Z,10.70
2019-04-30T08:08:24.501Z,11.30
2019-04-30T08:10:45.481Z,10.70
2019-04-30T08:13:15.143Z,10.80
2019-04-30T08:15:42.118Z,10.50
2019-04-30T08:18:06.278Z,10.80
2019-04-30T08:20:33.208Z,10.90
2019-04-30T08:23:12.985Z,10.90
2019-04-30T08:25:28.908Z,10.80
2019-04-30T08:27:54.012Z,11.00
2019-04-30T08:30:26.482Z,10.90
2019-04-30T08:32:49.773Z,10.80
2019-04-30T08:35:14.846Z,10.90
2019-04-30T08:37:41.774Z,11.00
2019-04-30T08:40:08.822Z,11.00
2019-04-30T08:42:37.893Z,11.00
2019-04-30T08:45:02.664Z,11.10
2019-04-30T08:47:29.615Z,11.00
2019-04-30T08:49:56.607Z,11.10
2019-04-30T08:52:23.560Z,10.80
2019-04-30T08:54:50.998Z,11.00
2019-04-30T08:57:19.103Z,11.10
2019-04-30T08:59:44.804Z,11.20
2019-04-30T09:02:15.479Z,11.10
2019-04-30T09:04:38.889Z,11.10
2019-04-30T09:07:05.577Z,11.10
2019-04-30T09:09:32.497Z,11.10
2019-04-30T09:11:59.464Z,11.00
2019-04-30T09:14:26.421Z,11.00
2019-04-30T09:16:53.364Z,11.10
2019-04-30T09:19:21.322Z,11.00
2019-04-30T09:21:48.862Z,11.00
2019-04-30T09:24:14.188Z,11.10
2019-04-30T09:26:41.124Z,11.00
2019-04-30T09:29:09.328Z,11.00
2019-04-30T09:31:34.973Z,9.90
2019-04-30T09:34:14.023Z,11.00
2019-04-30T09:36:29.331Z,11.10
2019-04-30T09:38:55.760Z,11.10
2019-04-30T09:41:22.745Z,10.90
2019-04-30T09:43:49.660Z,11.10
2019-04-30T09:46:24.636Z,10.90
2019-04-30T09:48:43.504Z,11.00
2019-04-30T09:51:11.090Z,11.00
2019-04-30T09:53:39.226Z,11.20
2019-04-30T09:56:04.879Z,11.30
2019-04-30T09:58:31.787Z,11.30
2019-04-30T10:00:59.327Z,11.40
2019-04-30T10:03:26.031Z,11.40
2019-04-30T10:05:52.752Z,11.50
2019-04-30T10:08:21.012Z,9.90
2019-04-30T10:10:52.548Z,11.30
2019-04-30T10:13:19.444Z,11.40
2019-04-30T10:15:52.452Z,11.00
2019-04-30T10:18:19.375Z,11.40
2019-04-30T10:20:46.400Z,11.60
2019-04-30T10:23:13.351Z,11.70
2019-04-30T10:25:40.286Z,11.90
2019-04-30T10:28:07.260Z,12.10
2019-04-30T10:30:34.532Z,12.10
2019-04-30T10:33:01.499Z,12.30
2019-04-30T10:35:28.633Z,12.40
2019-04-30T10:37:55.332Z,12.60
2019-04-30T10:40:22.294Z,12.80
2019-04-30T10:42:49.198Z,13.00
2019-04-30T10:45:16.145Z,12.90
2019-04-30T10:47:43.103Z,12.70
2019-04-30T10:50:10.140Z,12.60
2019-04-30T10:52:36.948Z,12.70
2019-04-30T10:55:04.662Z,12.60
2019-04-30T10:57:32.168Z,12.40
2019-04-30T10:59:59.077Z,12.50
2019-04-30T11:02:26.144Z,12.70
2019-04-30T11:04:53.093Z,13.00
2019-04-30T11:07:20.033Z,13.50
2019-04-30T11:09:46.981Z,13.90
2019-04-30T11:12:13.896Z,14.00
2019-04-30T11:14:40.822Z,13.90
2019-04-30T11:17:09.634Z,13.90
2019-04-30T11:19:34.878Z,14.00
2019-04-30T11:22:01.855Z,13.40
2019-04-30T11:24:36.567Z,14.90
2019-04-30T11:26:55.886Z,15.30
2019-04-30T11:29:23.256Z,15.30
2019-04-30T11:31:53.856Z,15.20
2019-04-30T11:34:20.742Z,15.10
2019-04-30T11:36:47.655Z,14.70
2019-04-30T11:39:18.475Z,14.70
2019-04-30T11:41:43.368Z,14.50
2019-04-30T11:44:10.316Z,13.00
2019-04-30T11:46:59.588Z,14.30
2019-04-30T11:49:25.819Z,14.90
2019-04-30T11:51:52.744Z,15.70
2019-04-30T11:54:19.684Z,16.40
2019-04-30T11:56:50.299Z,16.60
2019-04-30T11:59:14.693Z,16.30
2019-04-30T12:01:41.697Z,16.30
2019-04-30T12:04:09.336Z,16.30
2019-04-30T12:06:35.513Z,16.30
2019-04-30T12:09:09.207Z,16.40
2019-04-30T12:11:36.367Z,16.60
2019-04-30T12:14:03.374Z,17.20
2019-04-30T12:16:30.322Z,16.90
2019-04-30T12:18:58.976Z,16.60
2019-04-30T12:21:24.175Z,16.30
2019-04-30T12:23:51.139Z,16.50
2019-04-30T12:26:19.052Z,16.50
2019-04-30T12:28:45.017Z,16.60
2019-04-30T12:31:11.949Z,17.00
2019-04-30T12:33:38.961Z,17.40
2019-04-30T12:36:06.518Z,17.70
2019-04-30T12:38:32.833Z,16.50
2019-04-30T12:40:59.780Z,17.50
2019-04-30T12:43:26.693Z,17.40
2019-04-30T12:46:02.569Z,17.20
2019-04-30T12:48:32.249Z,17.10
2019-04-30T12:51:13.213Z,17.10
2019-04-30T12:53:46.392Z,17.20
2019-04-30T12:56:27.021Z,17.40
2019-04-30T12:58:50.127Z,17.50
2019-04-30T13:01:17.279Z,17.80
2019-04-30T13:03:55.468Z,18.10
2019-04-30T13:06:11.859Z,18.20
2019-04-30T13:08:38.508Z,18.30
2019-04-30T13:11:05.579Z,17.60
2019-04-30T13:13:32.679Z,18.40
2019-04-30T13:16:00.053Z,18.30
2019-04-30T13:18:25.855Z,18.20
2019-04-30T13:20:52.825Z,18.30
2019-04-30T13:23:19.691Z,18.20
2019-04-30T13:25:51.247Z,18.00
2019-04-30T13:28:15.777Z,18.00
2019-04-30T13:30:42.704Z,17.90
2019-04-30T13:33:14.493Z,17.90
2019-04-30T13:35:41.408Z,17.60
2019-04-30T13:38:16.383Z,17.60
2019-04-30T13:40:49.028Z,17.70
2019-04-30T13:43:15.790Z,17.90
2019-04-30T13:45:42.739Z,17.90
2019-04-30T13:48:09.655Z,18.00
2019-04-30T13:50:36.575Z,18.00
2019-04-30T13:53:03.520Z,17.80
2019-04-30T13:55:42.691Z,17.70
2019-04-30T13:57:57.367Z,17.80
2019-04-30T14:00:24.836Z,17.90
2019-04-30T14:03:00.557Z,17.70
2019-04-30T14:05:24.351Z,17.80
2019-04-30T14:08:01.115Z,18.00
2019-04-30T14:10:29.475Z,18.00
2019-04-30T14:12:57.820Z,18.20
2019-04-30T14:15:24.767Z,18.40
2019-04-30T14:17:51.709Z,18.50
2019-04-30T14:20:18.628Z,18.70
2019-04-30T14:22:45.573Z,18.90
2019-04-30T14:25:12.497Z,19.00
2019-04-30T14:27:49.045Z,17.50
2019-04-30T14:30:06.373Z,19.10
2019-04-30T14:32:33.296Z,19.20
2019-04-30T14:35:00.214Z,19.00
2019-04-30T14:37:27.178Z,19.00
2019-04-30T14:39:54.535Z,18.70
2019-04-30T14:42:21.937Z,16.50
2019-04-30T14:44:50.138Z,18.10
2019-04-30T14:47:34.939Z,18.10
2019-04-30T14:50:09.926Z,18.20
2019-04-30T14:52:40.305Z,17.90
2019-04-30T14:55:15.544Z,17.90
2019-04-30T14:57:55.935Z,17.60
2019-04-30T15:00:42.479Z,17.60
2019-04-30T15:03:12.527Z,17.40
2019-04-30T15:05:46.909Z,17.50
2019-04-30T15:08:08.481Z,17.60
2019-04-30T15:10:33.331Z,17.70
2019-04-30T15:13:02.543Z,17.80
2019-04-30T15:15:29.148Z,17.80
2019-04-30T15:17:54.112Z,17.80
2019-04-30T15:20:21.026Z,17.80
2019-04-30T15:22:56.644Z,17.80
2019-04-30T15:25:23.558Z,17.10
2019-04-30T15:27:50.521Z,17.90
2019-04-30T15:30:21.603Z,17.90
2019-04-30T15:32:44.363Z,18.00
2019-04-30T15:35:11.302Z,18.00
2019-04-30T15:37:38.591Z,18.00
2019-04-30T15:40:05.281Z,18.00
2019-04-30T15:42:32.199Z,18.00
2019-04-30T15:44:59.509Z,17.90
2019-04-30T15:47:26.064Z,17.70
2019-04-30T15:49:52.996Z,17.70
2019-04-30T15:52:19.951Z,17.70
2019-04-30T15:54:46.887Z,17.70
2019-04-30T15:57:13.803Z,17.60
2019-04-30T15:59:42.468Z,16.30
2019-04-30T16:02:29.007Z,17.30
2019-04-30T16:05:03.014Z,17.30
2019-04-30T16:07:29.945Z,17.30
2019-04-30T16:10:02.739Z,17.30
2019-04-30T16:12:38.518Z,17.10
2019-04-30T16:15:03.925Z,17.30
2019-04-30T16:17:30.928Z,17.30
2019-04-30T16:19:57.892Z,17.30
2019-04-30T16:22:24.800Z,17.20
2019-04-30T16:24:54.405Z,17.20
2019-04-30T16:27:19.137Z,17.20
2019-04-30T16:29:45.573Z,17.10
2019-04-30T16:32:12.572Z,17.10
2019-04-30T16:34:39.504Z,17.00
2019-04-30T16:37:06.400Z,17.10
2019-04-30T16:39:33.345Z,17.10
2019-04-30T16:42:00.268Z,17.10
2019-04-30T16:44:27.204Z,17.00
2019-04-30T16:46:54.163Z,17.00
2019-04-30T16:49:21.093Z,18.30
2019-04-30T16:51:49.905Z,16.80
2019-04-30T16:54:14.949Z,16.80
2019-04-30T16:56:41.954Z,16.80
2019-04-30T16:59:08.904Z,18.90
2019-04-30T17:01:36.029Z,16.70
2019-04-30T17:04:10.512Z,16.70
2019-04-30T17:06:38.875Z,16.70
2019-04-30T17:09:10.237Z,16.70
2019-04-30T17:11:59.442Z,16.60
2019-04-30T17:14:25.115Z,16.60
2019-04-30T17:16:52.033Z,16.50
2019-04-30T17:19:19.129Z,16.50
2019-04-30T17:21:45.896Z,16.50
2019-04-30T17:24:14.122Z,16.40
2019-04-30T17:26:39.800Z,16.40
2019-04-30T17:29:06.733Z,16.30
2019-04-30T17:31:33.639Z,16.30
2019-04-30T17:34:00.629Z,16.20
2019-04-30T17:36:29.673Z,16.20
2019-04-30T17:38:54.477Z,16.10
2019-04-30T17:41:21.464Z,16.10
2019-04-30T17:43:49.550Z,15.90
2019-04-30T17:46:15.328Z,15.90
2019-04-30T17:48:42.277Z,16.00
2019-04-30T17:51:09.543Z,15.80
2019-04-30T17:53:36.132Z,15.90
2019-04-30T17:56:03.253Z,15.80
2019-04-30T17:58:30.171Z,15.80
2019-04-30T18:00:57.087Z,15.70
2019-04-30T18:03:24.026Z,15.60
2019-04-30T18:05:50.981Z,15.60
2019-04-30T18:08:19.497Z,15.50
2019-04-30T18:10:46.472Z,15.40
2019-04-30T18:13:13.396Z,15.40
2019-04-30T18:15:40.328Z,15.30
2019-04-30T18:18:12.029Z,15.30
2019-04-30T18:20:44.008Z,15.30
2019-04-30T18:23:16.917Z,15.20
2019-04-30T18:25:47.999Z,15.20
2019-04-30T18:28:14.914Z,15.00
2019-04-30T18:30:41.856Z,15.00
2019-04-30T18:33:09.881Z,14.90
2019-04-30T18:35:35.717Z,15.90
2019-04-30T18:38:02.697Z,14.60
2019-04-30T18:40:29.678Z,14.50
2019-04-30T18:42:56.569Z,14.40
2019-04-30T18:45:23.520Z,14.50
2019-04-30T18:47:50.464Z,14.40
2019-04-30T18:50:17.409Z,14.20
2019-04-30T18:52:44.397Z,14.20
2019-04-30T18:55:11.318Z,14.10
2019-04-30T18:57:38.240Z,14.10
2019-04-30T19:00:05.232Z,13.20
2019-04-30T19:02:32.165Z,14.00
2019-04-30T19:04:59.508Z,12.80
2019-04-30T19:07:30.978Z,13.90
2019-04-30T19:10:07.487Z,13.70
2019-04-30T19:12:40.108Z,13.60
2019-04-30T19:15:41.317Z,13.50
2019-04-30T19:18:16.242Z,13.30
2019-04-30T19:20:45.993Z,13.30
2019-04-30T19:23:12.908Z,13.00
2019-04-30T19:25:39.854Z,13.00
2019-04-30T19:28:13.994Z,13.00
2019-04-30T19:30:33.737Z,12.90
2019-04-30T19:33:00.660Z,12.90
2019-04-30T19:35:27.604Z,12.90
2019-04-30T19:37:54.528Z,13.00
2019-04-30T19:40:21.509Z,12.90
2019-04-30T19:42:50.857Z,12.80
2019-04-30T19:45:15.412Z,12.80
2019-04-30T19:47:42.358Z,12.70
2019-04-30T19:50:09.525Z,12.70
2019-04-30T19:52:36.221Z,12.70
2019-04-30T19:55:03.176Z,12.60
2019-04-30T19:57:30.109Z,12.70
2019-04-30T19:59:58.694Z,12.60
2019-04-30T20:02:23.952Z,12.50
2019-04-30T20:04:50.880Z,12.40
2019-04-30T20:07:19.531Z,11.40
2019-04-30T20:09:57.586Z,12.30
2019-04-30T20:12:13.161Z,12.30
2019-04-30T20:14:40.119Z,12.20
2019-04-30T20:17:08.803Z,12.20
2019-04-30T20:19:33.987Z,12.10
2019-04-30T20:22:00.938Z,12.20
2019-04-30T20:24:29.573Z,12.20
2019-04-30T20:27:04.913Z,12.20
2019-04-30T20:29:21.732Z,12.20
2019-04-30T20:31:48.814Z,12.10
2019-04-30T20:34:15.603Z,12.10
2019-04-30T20:36:42.528Z,12.10
2019-04-30T20:39:15.946Z,12.00
2019-04-30T20:41:41.216Z,12.00
2019-04-30T20:44:08.705Z,12.00
2019-04-30T20:46:35.411Z,12.00
2019-04-30T20:49:02.043Z,12.00
2019-04-30T20:51:29.181Z,12.00
2019-04-30T20:53:55.960Z,12.00
2019-04-30T20:56:22.898Z,12.00
2019-04-30T20:58:57.930Z,11.90
2019-04-30T21:01:16.768Z,11.90
2019-04-30T21:03:43.708Z,11.10
2019-04-30T21:06:10.631Z,11.90
2019-04-30T21:08:37.566Z,11.90
2019-04-30T21:11:04.520Z,11.90
2019-04-30T21:13:31.804Z,11.80
2019-04-30T21:15:59.527Z,11.80
2019-04-30T21:18:25.724Z,11.80
2019-04-30T21:20:52.652Z,11.70
2019-04-30T21:23:19.661Z,11.60
2019-04-30T21:25:46.879Z,11.50
2019-04-30T21:28:13.468Z,11.50
2019-04-30T21:30:40.392Z,11.50
2019-04-30T21:33:13.520Z,11.50
2019-04-30T21:35:46.111Z,11.50
2019-04-30T21:38:13.029Z,11.50
2019-04-30T21:40:39.944Z,11.50
2019-04-30T21:43:06.875Z,10.90
2019-04-30T21:45:33.797Z,11.40
2019-04-30T21:48:01.477Z,11.40
2019-04-30T21:50:29.499Z,11.40
2019-04-30T21:52:54.599Z,11.30
2019-04-30T21:55:21.536Z,11.30
2019-04-30T21:57:49.633Z,11.00
2019-04-30T22:00:18.861Z,11.00
2019-04-30T22:02:45.793Z,11.00
2019-04-30T22:05:12.720Z,10.90
2019-04-30T22:07:39.639Z,10.70
2019-04-30T22:10:06.589Z,10.60
2019-04-30T22:12:33.537Z,10.50
2019-04-30T22:15:00.865Z,10.30
2019-04-30T22:17:29.256Z,10.50
2019-04-30T22:19:54.753Z,10.50
2019-04-30T22:22:21.700Z,10.30
2019-04-30T22:24:49.667Z,10.30
2019-04-30T22:27:17.479Z,10.20
2019-04-30T22:29:42.559Z,10.10
2019-04-30T22:32:09.497Z,10.10
2019-04-30T22:34:36.416Z,10.00
2019-04-30T22:37:03.342Z,10.00
2019-04-30T22:39:35.677Z,9.90
2019-04-30T22:42:32.720Z,9.70
2019-04-30T22:45:00.251Z,9.60
2019-04-30T22:47:27.208Z,9.60
2019-04-30T22:49:54.149Z,9.60
2019-04-30T22:52:21.918Z,9.60
2019-04-30T22:54:48.041Z,9.50
2019-04-30T22:57:14.974Z,9.50
2019-04-30T22:59:49.853Z,9.40
2019-04-30T23:02:15.680Z,9.40
2019-04-30T23:04:44.550Z,9.30
2019-04-30T23:07:11.475Z,9.30
2019-04-30T23:09:38.407Z,9.30
2019-04-30T23:12:05.329Z,9.20
2019-04-30T23:14:32.277Z,8.70
2019-04-30T23:16:59.767Z,9.00
2019-04-30T23:19:26.706Z,9.00
2019-04-30T23:21:53.632Z,9.10
2019-04-30T23:24:20.609Z,9.00
2019-04-30T23:26:47.543Z,8.20
2019-04-30T23:29:14.469Z,8.40
2019-04-30T23:31:41.437Z,9.10
2019-04-30T23:34:17.764Z,9.10
2019-04-30T23:36:35.275Z,9.20
2019-04-30T23:39:02.298Z,9.10
2019-04-30T23:41:29.216Z,9.00
2019-04-30T23:43:56.145Z,9.00
2019-04-30T23:46:23.102Z,8.90
2019-04-30T23:48:50.057Z,8.90
2019-04-30T23:51:17.004Z,8.80
2019-04-30T23:53:43.924Z,8.90
2019-04-30T23:56:10.851Z,8.80
2019-04-30T23:58:37.801Z,8.70
